createdAt,value
2019-04-11T00:04:19.904Z,20.97
2019-04-11T00:09:24.943Z,18.53
2019-04-11T00:14:29.735Z,18.83
2019-04-11T00:19:34.372Z,17.27
2019-04-11T00:24:39.114Z,17.93
2019-04-11T00:29:44.782Z,17.70
2019-04-11T00:34:49.624Z,18.80
2019-04-11T00:39:54.367Z,18.03
2019-04-11T00:44:59.177Z,18.53
2019-04-11T00:50:07.235Z,18.20
2019-04-11T00:55:13.295Z,18.70
2019-04-11T01:00:18.635Z,18.40
2019-04-11T01:05:23.629Z,18.03
2019-04-11T01:10:28.170Z,18.40
2019-04-11T01:15:33.001Z,19.90
2019-04-11T01:20:37.803Z,20.77
2019-04-11T01:25:42.895Z,19.83
2019-04-11T01:30:49.276Z,19.17
2019-04-11T01:35:54.045Z,18.77
2019-04-11T01:40:58.749Z,19.07
2019-04-11T01:46:03.705Z,18.73
2019-04-11T01:51:09.603Z,19.70
2019-04-11T01:56:14.840Z,17.67
2019-04-11T02:01:25.074Z,17.90
2019-04-11T02:06:30.360Z,18.43
2019-04-11T02:11:34.890Z,17.47
2019-04-11T02:16:39.530Z,18.53
2019-04-11T02:21:44.267Z,19.27
2019-04-11T02:27:00.763Z,22.10
2019-04-11T02:32:07.446Z,24.63
2019-04-11T02:37:13.355Z,26.13
2019-04-11T02:42:18.994Z,27.27
2019-04-11T02:47:27.643Z,28.17
2019-04-11T02:52:31.223Z,28.23
2019-04-11T02:57:36.297Z,26.33
2019-04-11T03:02:42.359Z,25.00
2019-04-11T03:07:47.740Z,26.30
2019-04-11T03:12:52.768Z,26.53
2019-04-11T03:18:01.977Z,27.27
2019-04-11T03:23:06.180Z,26.57
2019-04-11T03:28:14.923Z,28.87
2019-04-11T03:34:01.880Z,26.43
2019-04-11T03:38:46.929Z,29.17
2019-04-11T03:43:39.505Z,26.73
2019-04-11T03:48:46.767Z,26.30
2019-04-11T03:53:43.199Z,28.33
2019-04-11T03:58:48.658Z,28.03
2019-04-11T04:03:58.194Z,27.53
2019-04-11T04:09:02.754Z,28.40
2019-04-11T04:14:28.618Z,22.10
2019-04-11T04:19:35.425Z,23.37
2019-04-11T04:24:42.637Z,22.90
2019-04-11T04:29:52.841Z,31.83
2019-04-11T04:34:56.031Z,31.13
2019-04-11T04:40:19.004Z,35.00
2019-04-11T04:45:09.044Z,26.50
2019-04-11T04:50:13.724Z,27.07
2019-04-11T04:55:19.445Z,30.40
2019-04-11T05:00:25.357Z,38.67
2019-04-11T05:05:31.756Z,37.27
2019-04-11T05:10:37.991Z,37.73
2019-04-11T05:15:43.676Z,39.10
2019-04-11T05:20:49.312Z,43.00
2019-04-11T05:25:54.952Z,37.63
2019-04-11T05:31:00.460Z,45.37
2019-04-11T05:36:05.995Z,40.47
2019-04-11T05:41:12.347Z,32.70
2019-04-11T05:46:31.175Z,34.17
2019-04-11T05:51:24.906Z,36.63
2019-04-11T05:56:31.560Z,33.57
2019-04-11T06:01:38.334Z,37.33
2019-04-11T06:06:44.733Z,36.47
2019-04-11T06:11:55.837Z,31.47
2019-04-11T06:17:01.854Z,33.67
2019-04-11T06:22:08.683Z,38.33
2019-04-11T06:27:18.258Z,34.93
2019-04-11T06:32:31.895Z,28.87
2019-04-11T06:37:47.853Z,28.97
2019-04-11T06:42:54.104Z,33.60
2019-04-11T06:48:00.992Z,32.30
2019-04-11T06:54:00.860Z,32.10
2019-04-11T06:59:26.081Z,27.47
2019-04-11T07:04:33.571Z,28.83
2019-04-11T07:09:43.005Z,25.13
2019-04-11T07:15:07.327Z,19.90
2019-04-11T07:20:20.691Z,21.17
2019-04-11T07:25:27.338Z,17.13
2019-04-11T07:30:49.901Z,12.17
2019-04-11T07:35:59.838Z,5.50
2019-04-11T07:41:09.343Z,5.13
2019-04-11T07:46:22.149Z,4.97
2019-04-11T07:51:27.563Z,3.80
2019-04-11T07:56:35.172Z,4.63
2019-04-11T08:01:42.474Z,5.67
2019-04-11T08:07:04.427Z,4.70
2019-04-11T08:12:10.803Z,5.00
2019-04-11T08:17:33.289Z,5.67
2019-04-11T08:22:35.052Z,5.30
2019-04-11T08:27:53.095Z,6.47
2019-04-11T08:32:53.812Z,7.40
2019-04-11T08:38:02.803Z,7.23
2019-04-11T08:43:09.413Z,10.20
2019-04-11T08:48:16.978Z,8.17
2019-04-11T08:53:21.759Z,6.80
2019-04-11T08:58:28.849Z,5.67
2019-04-11T09:04:01.249Z,7.70
2019-04-11T09:09:02.807Z,4.97
2019-04-11T09:14:26.622Z,8.03
2019-04-11T09:19:32.904Z,5.07
2019-04-11T09:24:43.143Z,3.47
2019-04-11T09:30:12.765Z,4.67
2019-04-11T09:35:33.393Z,4.60
2019-04-11T09:40:57.160Z,4.30
2019-04-11T09:46:22.057Z,4.73
2019-04-11T09:51:29.457Z,4.20
2019-04-11T09:56:55.998Z,4.17
2019-04-11T10:02:20.964Z,4.27
2019-04-11T10:07:28.141Z,5.40
2019-04-11T10:12:42.403Z,7.60
2019-04-11T10:18:07.317Z,18.23
2019-04-11T10:23:13.763Z,9.43
2019-04-11T10:28:27.321Z,8.80
2019-04-11T10:33:43.025Z,6.93
2019-04-11T10:38:50.857Z,6.40
2019-04-11T10:43:55.558Z,6.83
2019-04-11T10:49:01.873Z,5.23
2019-04-11T10:54:08.418Z,4.60
2019-04-11T10:59:13.996Z,4.17
2019-04-11T11:04:21.872Z,4.50
2019-04-11T11:09:35.399Z,4.33
2019-04-11T11:14:45.017Z,3.53
2019-04-11T11:20:18.236Z,5.87
2019-04-11T12:13:54.012Z,3.40
2019-04-11T12:19:15.838Z,5.17
2019-04-11T12:24:30.181Z,3.83
2019-04-11T12:29:36.479Z,3.80
2019-04-11T12:34:49.404Z,3.33
2019-04-11T12:40:06.676Z,4.23
2019-04-11T12:45:22.790Z,4.83
2019-04-11T12:50:45.285Z,3.70
2019-04-11T12:56:00.643Z,8.63
2019-04-11T13:01:07.123Z,8.13
2019-04-11T13:06:35.411Z,7.30
2019-04-11T13:11:37.395Z,7.93
2019-04-11T13:16:44.086Z,3.60
2019-04-11T13:21:50.363Z,2.93
2019-04-11T13:27:12.821Z,6.80
2019-04-11T13:32:34.051Z,5.07
2019-04-11T13:37:56.818Z,4.63
2019-04-11T13:43:19.686Z,3.70
2019-04-11T13:48:44.342Z,3.20
2019-04-11T13:54:06.661Z,3.70
2019-04-11T13:59:29.423Z,2.83
2019-04-11T14:04:44.606Z,3.43
2019-04-11T14:09:50.783Z,3.57
2019-04-11T14:14:57.067Z,3.97
2019-04-11T14:20:29.137Z,2.63
2019-04-11T14:25:27.752Z,3.83
2019-04-11T14:30:46.677Z,2.20
2019-04-11T14:36:12.264Z,1.87
2019-04-11T14:41:21.305Z,4.90
2019-04-11T14:46:42.838Z,27.93
2019-04-11T14:51:58.070Z,21.60
2019-04-11T14:57:03.284Z,17.10
2019-04-11T15:02:09.971Z,3.80
2019-04-11T15:07:16.352Z,4.83
2019-04-11T15:12:26.567Z,3.83
2019-04-11T15:17:32.896Z,5.17
2019-04-11T15:22:45.239Z,16.33
2019-04-11T15:27:54.479Z,9.67
2019-04-11T15:33:16.940Z,7.67
2019-04-11T15:38:38.577Z,4.53
2019-04-11T15:44:00.118Z,5.00
2019-04-11T15:49:21.161Z,7.83
2019-04-11T15:54:40.122Z,8.83
2019-04-11T16:00:02.809Z,7.60
2019-04-11T16:05:22.844Z,14.27
2019-04-11T16:10:29.367Z,9.60
2019-04-11T16:15:39.444Z,16.73
2019-04-11T16:20:47.803Z,20.10
2019-04-11T16:25:52.305Z,15.40
2019-04-11T16:30:58.582Z,13.63
2019-04-11T16:36:20.119Z,5.80
2019-04-11T16:41:43.505Z,7.77
2019-04-11T16:47:08.322Z,2.50
2019-04-11T16:52:13.175Z,3.20
2019-04-11T16:57:18.109Z,4.37
2019-04-11T17:02:24.245Z,5.00
2019-04-11T17:07:47.665Z,4.73
2019-04-11T17:12:53.802Z,17.60
2019-04-11T17:17:59.713Z,61.27
2019-04-11T17:23:05.584Z,8.10
2019-04-11T17:28:10.329Z,6.80
2019-04-11T17:33:14.967Z,18.27
2019-04-11T17:38:19.715Z,16.03
2019-04-11T17:43:24.451Z,5.20
2019-04-11T17:48:29.195Z,13.70
2019-04-11T17:53:33.947Z,8.20
2019-04-11T17:58:38.788Z,10.87
2019-04-11T18:03:43.531Z,10.23
2019-04-11T18:08:51.108Z,11.77
2019-04-11T18:13:54.453Z,7.07
2019-04-11T18:18:59.085Z,5.13
2019-04-11T18:24:03.936Z,5.50
2019-04-11T18:29:08.585Z,7.00
2019-04-11T18:34:13.230Z,10.47
2019-04-11T18:39:17.965Z,8.47
2019-04-11T18:44:22.705Z,6.87
2019-04-11T18:49:27.457Z,6.80
2019-04-11T18:54:32.103Z,5.17
2019-04-11T18:59:37.246Z,8.87
2019-04-11T19:04:42.780Z,10.50
2019-04-11T19:09:47.654Z,7.27
2019-04-11T19:14:52.393Z,6.80
2019-04-11T19:19:57.139Z,8.50
2019-04-11T19:25:02.888Z,8.33
2019-04-11T19:30:07.873Z,8.73
2019-04-11T19:35:12.703Z,12.17
2019-04-11T19:40:17.890Z,8.20
2019-04-11T19:45:23.952Z,8.00
2019-04-11T19:50:30.211Z,7.17
2019-04-11T19:55:36.594Z,7.70
2019-04-11T20:00:42.524Z,7.23
2019-04-11T20:05:47.411Z,6.90
2019-04-11T20:10:52.251Z,6.20
2019-04-11T20:15:57.354Z,8.60
2019-04-11T20:21:02.161Z,14.40
2019-04-11T20:26:06.893Z,9.40
2019-04-11T20:31:11.635Z,12.07
2019-04-11T20:36:16.383Z,22.33
2019-04-11T20:41:23.220Z,21.80
2019-04-11T20:46:29.103Z,21.03
2019-04-11T20:51:33.788Z,17.17
2019-04-11T20:56:40.325Z,13.73
2019-04-11T21:01:44.809Z,12.70
2019-04-11T21:06:49.427Z,9.57
2019-04-11T21:11:54.193Z,8.80
2019-04-11T21:16:59.144Z,10.10
2019-04-11T21:22:05.536Z,13.07
2019-04-11T21:27:10.367Z,11.20
2019-04-11T21:32:15.229Z,9.60
2019-04-11T21:37:19.952Z,8.67
2019-04-11T21:42:24.697Z,9.67
2019-04-11T21:47:29.446Z,11.43
2019-04-11T21:52:34.308Z,9.83
2019-04-11T21:57:39.133Z,10.57
2019-04-11T22:02:43.811Z,9.03
2019-04-11T22:07:48.726Z,7.70
2019-04-11T22:12:54.393Z,10.17
2019-04-11T22:17:59.131Z,9.13
2019-04-11T22:23:03.876Z,8.73
2019-04-11T22:28:08.518Z,12.27
2019-04-11T22:33:15.819Z,11.23
2019-04-11T22:38:20.470Z,8.77
2019-04-11T22:43:25.201Z,9.77
2019-04-11T22:48:30.046Z,10.80
2019-04-11T22:53:34.687Z,9.53
2019-04-11T22:58:39.444Z,11.40
2019-04-11T23:03:48.782Z,9.10
2019-04-11T23:08:53.520Z,7.13
2019-04-11T23:13:58.267Z,7.03
2019-04-11T23:19:02.912Z,8.40
2019-04-11T23:24:11.977Z,7.23
2019-04-11T23:29:16.129Z,7.87
2019-04-11T23:34:22.153Z,6.23
2019-04-11T23:39:27.616Z,6.10
2019-04-11T23:44:32.360Z,6.33
2019-04-11T23:49:37.208Z,6.57
2019-04-11T23:54:43.596Z,6.10
2019-04-11T23:59:48.328Z,6.73
